sensor_id;sensor_type;location;lat;lon;timestamp;P1;durP1;ratioP1;P2;durP2;ratioP2
45198;SDS011;30941;46.422;18.772;2023-09-07T00:01:20;13.63;;;4.60;;
45198;SDS011;30941;46.422;18.772;2023-09-07T00:03:45;5.60;;;4.05;;
45198;SDS011;30941;46.422;18.772;2023-09-07T00:06:10;6.30;;;3.88;;
45198;SDS011;30941;46.422;18.772;2023-09-07T00:08:36;7.30;;;4.28;;
45198;SDS011;30941;46.422;18.772;2023-09-07T00:11:05;8.32;;;4.43;;
45198;SDS011;30941;46.422;18.772;2023-09-07T00:13:31;7.93;;;4.22;;
45198;SDS011;30941;46.422;18.772;2023-09-07T00:16:00;10.32;;;4.45;;
45198;SDS011;30941;46.422;18.772;2023-09-07T00:18:26;7.95;;;3.97;;
45198;SDS011;30941;46.422;18.772;2023-09-07T00:20:52;6.57;;;4.53;;
45198;SDS011;30941;46.422;18.772;2023-09-07T00:23:17;8.25;;;4.70;;
45198;SDS011;30941;46.422;18.772;2023-09-07T00:25:44;7.00;;;4.40;;
45198;SDS011;30941;46.422;18.772;2023-09-07T00:28:10;8.98;;;5.10;;
45198;SDS011;30941;46.422;18.772;2023-09-07T00:30:35;9.48;;;4.70;;
45198;SDS011;30941;46.422;18.772;2023-09-07T00:33:01;7.43;;;4.38;;
45198;SDS011;30941;46.422;18.772;2023-09-07T00:35:26;6.75;;;4.47;;
45198;SDS011;30941;46.422;18.772;2023-09-07T00:37:51;6.20;;;4.65;;
45198;SDS011;30941;46.422;18.772;2023-09-07T00:40:17;8.05;;;3.72;;
45198;SDS011;30941;46.422;18.772;2023-09-07T00:42:42;8.43;;;5.30;;
45198;SDS011;30941;46.422;18.772;2023-09-07T00:45:07;8.85;;;4.38;;
45198;SDS011;30941;46.422;18.772;2023-09-07T00:47:33;6.93;;;4.55;;
45198;SDS011;30941;46.422;18.772;2023-09-07T00:50:00;6.95;;;4.45;;
45198;SDS011;30941;46.422;18.772;2023-09-07T00:52:25;7.30;;;4.22;;
45198;SDS011;30941;46.422;18.772;2023-09-07T00:54:52;8.35;;;4.38;;
45198;SDS011;30941;46.422;18.772;2023-09-07T00:57:17;8.27;;;4.68;;
45198;SDS011;30941;46.422;18.772;2023-09-07T00:59:42;8.07;;;4.50;;
45198;SDS011;30941;46.422;18.772;2023-09-07T01:02:08;11.57;;;5.28;;
45198;SDS011;30941;46.422;18.772;2023-09-07T01:04:33;5.97;;;4.50;;
45198;SDS011;30941;46.422;18.772;2023-09-07T01:07:03;8.38;;;5.00;;
45198;SDS011;30941;46.422;18.772;2023-09-07T01:09:35;9.35;;;4.63;;
45198;SDS011;30941;46.422;18.772;2023-09-07T01:12:02;8.05;;;4.93;;
45198;SDS011;30941;46.422;18.772;2023-09-07T01:14:27;9.20;;;5.07;;
45198;SDS011;30941;46.422;18.772;2023-09-07T01:16:53;8.43;;;4.90;;
45198;SDS011;30941;46.422;18.772;2023-09-07T01:19:18;6.68;;;4.28;;
45198;SDS011;30941;46.422;18.772;2023-09-07T01:21:44;7.07;;;4.55;;
45198;SDS011;30941;46.422;18.772;2023-09-07T01:24:11;7.32;;;5.47;;
45198;SDS011;30941;46.422;18.772;2023-09-07T01:26:37;7.10;;;4.85;;
45198;SDS011;30941;46.422;18.772;2023-09-07T01:29:08;8.82;;;4.40;;
45198;SDS011;30941;46.422;18.772;2023-09-07T01:31:34;7.30;;;4.28;;
45198;SDS011;30941;46.422;18.772;2023-09-07T01:34:01;7.70;;;5.18;;
45198;SDS011;30941;46.422;18.772;2023-09-07T01:36:26;11.18;;;4.63;;
45198;SDS011;30941;46.422;18.772;2023-09-07T01:38:51;7.88;;;4.82;;
45198;SDS011;30941;46.422;18.772;2023-09-07T01:41:17;10.23;;;4.57;;
45198;SDS011;30941;46.422;18.772;2023-09-07T01:43:42;7.90;;;4.38;;
45198;SDS011;30941;46.422;18.772;2023-09-07T01:46:07;7.60;;;4.47;;
45198;SDS011;30941;46.422;18.772;2023-09-07T01:48:34;9.05;;;4.82;;
45198;SDS011;30941;46.422;18.772;2023-09-07T01:51:00;5.93;;;4.63;;
45198;SDS011;30941;46.422;18.772;2023-09-07T01:53:25;8.57;;;4.95;;
45198;SDS011;30941;46.422;18.772;2023-09-07T01:55:53;6.22;;;4.13;;
45198;SDS011;30941;46.422;18.772;2023-09-07T01:58:19;8.27;;;5.05;;
45198;SDS011;30941;46.422;18.772;2023-09-07T02:00:45;7.47;;;4.35;;
45198;SDS011;30941;46.422;18.772;2023-09-07T02:03:10;6.47;;;4.22;;
45198;SDS011;30941;46.422;18.772;2023-09-07T02:05:35;9.98;;;4.72;;
45198;SDS011;30941;46.422;18.772;2023-09-07T02:08:01;7.78;;;5.05;;
45198;SDS011;30941;46.422;18.772;2023-09-07T02:10:26;12.15;;;4.40;;
45198;SDS011;30941;46.422;18.772;2023-09-07T02:12:52;7.00;;;4.60;;
45198;SDS011;30941;46.422;18.772;2023-09-07T02:15:17;9.82;;;4.47;;
45198;SDS011;30941;46.422;18.772;2023-09-07T02:17:42;7.95;;;5.03;;
45198;SDS011;30941;46.422;18.772;2023-09-07T02:20:10;5.90;;;4.38;;
45198;SDS011;30941;46.422;18.772;2023-09-07T02:22:36;7.18;;;4.53;;
45198;SDS011;30941;46.422;18.772;2023-09-07T02:25:02;7.75;;;4.82;;
45198;SDS011;30941;46.422;18.772;2023-09-07T02:27:28;6.80;;;4.68;;
45198;SDS011;30941;46.422;18.772;2023-09-07T02:29:53;7.50;;;4.10;;
45198;SDS011;30941;46.422;18.772;2023-09-07T02:32:19;7.43;;;4.80;;
45198;SDS011;30941;46.422;18.772;2023-09-07T02:34:44;9.27;;;4.85;;
45198;SDS011;30941;46.422;18.772;2023-09-07T02:37:10;7.90;;;5.00;;
45198;SDS011;30941;46.422;18.772;2023-09-07T02:39:35;9.27;;;5.10;;
45198;SDS011;30941;46.422;18.772;2023-09-07T02:42:00;7.65;;;4.70;;
45198;SDS011;30941;46.422;18.772;2023-09-07T02:44:26;8.18;;;4.60;;
45198;SDS011;30941;46.422;18.772;2023-09-07T02:46:51;8.05;;;4.65;;
45198;SDS011;30941;46.422;18.772;2023-09-07T02:49:16;7.85;;;4.90;;
45198;SDS011;30941;46.422;18.772;2023-09-07T02:51:42;6.15;;;4.45;;
45198;SDS011;30941;46.422;18.772;2023-09-07T02:54:07;9.05;;;4.78;;
45198;SDS011;30941;46.422;18.772;2023-09-07T02:56:33;7.90;;;4.80;;
45198;SDS011;30941;46.422;18.772;2023-09-07T02:58:58;6.95;;;4.55;;
45198;SDS011;30941;46.422;18.772;2023-09-07T03:01:24;7.82;;;5.07;;
45198;SDS011;30941;46.422;18.772;2023-09-07T03:03:49;9.60;;;4.75;;
45198;SDS011;30941;46.422;18.772;2023-09-07T03:06:15;8.45;;;4.60;;
45198;SDS011;30941;46.422;18.772;2023-09-07T03:08:45;6.60;;;4.95;;
45198;SDS011;30941;46.422;18.772;2023-09-07T03:11:11;8.40;;;5.00;;
45198;SDS011;30941;46.422;18.772;2023-09-07T03:13:36;7.88;;;5.05;;
45198;SDS011;30941;46.422;18.772;2023-09-07T03:16:02;6.40;;;4.85;;
45198;SDS011;30941;46.422;18.772;2023-09-07T03:18:29;8.55;;;5.38;;
45198;SDS011;30941;46.422;18.772;2023-09-07T03:20:55;9.82;;;4.72;;
45198;SDS011;30941;46.422;18.772;2023-09-07T03:23:21;8.60;;;4.75;;
45198;SDS011;30941;46.422;18.772;2023-09-07T03:25:47;7.68;;;5.30;;
45198;SDS011;30941;46.422;18.772;2023-09-07T03:28:13;7.85;;;4.82;;
45198;SDS011;30941;46.422;18.772;2023-09-07T03:30:38;10.13;;;5.38;;
45198;SDS011;30941;46.422;18.772;2023-09-07T03:33:04;6.43;;;5.00;;
45198;SDS011;30941;46.422;18.772;2023-09-07T03:35:30;7.95;;;5.40;;
45198;SDS011;30941;46.422;18.772;2023-09-07T03:37:55;8.05;;;5.00;;
45198;SDS011;30941;46.422;18.772;2023-09-07T03:40:21;7.28;;;5.20;;
45198;SDS011;30941;46.422;18.772;2023-09-07T03:42:46;9.27;;;5.18;;
45198;SDS011;30941;46.422;18.772;2023-09-07T03:45:12;5.93;;;4.35;;
45198;SDS011;30941;46.422;18.772;2023-09-07T03:47:37;7.22;;;4.70;;
45198;SDS011;30941;46.422;18.772;2023-09-07T03:50:03;9.48;;;5.47;;
45198;SDS011;30941;46.422;18.772;2023-09-07T03:52:29;6.70;;;4.60;;
45198;SDS011;30941;46.422;18.772;2023-09-07T03:54:54;11.13;;;5.25;;
45198;SDS011;30941;46.422;18.772;2023-09-07T03:57:23;12.10;;;5.50;;
45198;SDS011;30941;46.422;18.772;2023-09-07T03:59:50;7.40;;;5.30;;
45198;SDS011;30941;46.422;18.772;2023-09-07T04:02:15;9.80;;;5.05;;
45198;SDS011;30941;46.422;18.772;2023-09-07T04:04:42;12.45;;;5.47;;
45198;SDS011;30941;46.422;18.772;2023-09-07T04:07:07;8.30;;;5.10;;
45198;SDS011;30941;46.422;18.772;2023-09-07T04:09:33;9.93;;;5.00;;
45198;SDS011;30941;46.422;18.772;2023-09-07T04:11:58;6.85;;;4.88;;
45198;SDS011;30941;46.422;18.772;2023-09-07T04:14:24;11.43;;;5.10;;
45198;SDS011;30941;46.422;18.772;2023-09-07T04:16:49;8.65;;;5.43;;
45198;SDS011;30941;46.422;18.772;2023-09-07T04:19:15;11.13;;;5.22;;
45198;SDS011;30941;46.422;18.772;2023-09-07T04:21:41;15.25;;;5.50;;
45198;SDS011;30941;46.422;18.772;2023-09-07T04:24:06;10.65;;;5.18;;
45198;SDS011;30941;46.422;18.772;2023-09-07T04:26:32;12.95;;;5.78;;
45198;SDS011;30941;46.422;18.772;2023-09-07T04:28:58;11.00;;;4.97;;
45198;SDS011;30941;46.422;18.772;2023-09-07T04:31:23;10.70;;;5.03;;
45198;SDS011;30941;46.422;18.772;2023-09-07T04:33:52;11.38;;;5.72;;
45198;SDS011;30941;46.422;18.772;2023-09-07T04:36:17;8.20;;;5.40;;
45198;SDS011;30941;46.422;18.772;2023-09-07T04:38:43;7.65;;;5.65;;
45198;SDS011;30941;46.422;18.772;2023-09-07T04:41:09;8.18;;;5.30;;
45198;SDS011;30941;46.422;18.772;2023-09-07T04:43:36;8.25;;;5.40;;
45198;SDS011;30941;46.422;18.772;2023-09-07T04:46:02;10.20;;;5.20;;
45198;SDS011;30941;46.422;18.772;2023-09-07T04:48:28;9.80;;;5.95;;
45198;SDS011;30941;46.422;18.772;2023-09-07T04:51:00;7.70;;;5.28;;
45198;SDS011;30941;46.422;18.772;2023-09-07T04:53:29;11.15;;;5.38;;
45198;SDS011;30941;46.422;18.772;2023-09-07T04:55:56;10.25;;;5.30;;
45198;SDS011;30941;46.422;18.772;2023-09-07T04:58:21;8.70;;;5.40;;
45198;SDS011;30941;46.422;18.772;2023-09-07T05:00:47;10.98;;;5.32;;
45198;SDS011;30941;46.422;18.772;2023-09-07T05:03:12;9.55;;;5.53;;
45198;SDS011;30941;46.422;18.772;2023-09-07T05:05:38;15.90;;;6.75;;
45198;SDS011;30941;46.422;18.772;2023-09-07T05:08:04;13.25;;;6.93;;
45198;SDS011;30941;46.422;18.772;2023-09-07T05:10:32;9.13;;;6.65;;
45198;SDS011;30941;46.422;18.772;2023-09-07T05:12:58;12.27;;;5.75;;
45198;SDS011;30941;46.422;18.772;2023-09-07T05:15:24;8.55;;;5.65;;
45198;SDS011;30941;46.422;18.772;2023-09-07T05:17:49;11.25;;;5.50;;
45198;SDS011;30941;46.422;18.772;2023-09-07T05:20:15;11.65;;;5.35;;
45198;SDS011;30941;46.422;18.772;2023-09-07T05:22:40;10.15;;;6.78;;
45198;SDS011;30941;46.422;18.772;2023-09-07T05:25:06;11.75;;;5.47;;
45198;SDS011;30941;46.422;18.772;2023-09-07T05:27:33;13.75;;;5.55;;
45198;SDS011;30941;46.422;18.772;2023-09-07T05:29:59;12.13;;;6.13;;
45198;SDS011;30941;46.422;18.772;2023-09-07T05:32:24;12.23;;;5.75;;
45198;SDS011;30941;46.422;18.772;2023-09-07T05:34:49;12.02;;;5.85;;
45198;SDS011;30941;46.422;18.772;2023-09-07T05:37:15;8.82;;;5.43;;
45198;SDS011;30941;46.422;18.772;2023-09-07T05:39:40;10.95;;;5.50;;
45198;SDS011;30941;46.422;18.772;2023-09-07T05:42:05;8.85;;;5.20;;
45198;SDS011;30941;46.422;18.772;2023-09-07T05:44:31;9.98;;;6.30;;
45198;SDS011;30941;46.422;18.772;2023-09-07T05:46:57;10.82;;;6.05;;
45198;SDS011;30941;46.422;18.772;2023-09-07T05:49:23;8.25;;;5.18;;
45198;SDS011;30941;46.422;18.772;2023-09-07T05:51:49;10.45;;;5.60;;
45198;SDS011;30941;46.422;18.772;2023-09-07T05:54:14;10.82;;;5.93;;
45198;SDS011;30941;46.422;18.772;2023-09-07T05:56:39;10.18;;;6.05;;
45198;SDS011;30941;46.422;18.772;2023-09-07T05:59:05;9.43;;;5.68;;
45198;SDS011;30941;46.422;18.772;2023-09-07T06:01:30;11.18;;;5.38;;
45198;SDS011;30941;46.422;18.772;2023-09-07T06:03:56;19.08;;;6.03;;
45198;SDS011;30941;46.422;18.772;2023-09-07T06:06:23;9.63;;;5.75;;
45198;SDS011;30941;46.422;18.772;2023-09-07T06:08:48;10.23;;;5.55;;
45198;SDS011;30941;46.422;18.772;2023-09-07T06:11:13;9.07;;;4.95;;
45198;SDS011;30941;46.422;18.772;2023-09-07T06:13:39;13.30;;;5.95;;
45198;SDS011;30941;46.422;18.772;2023-09-07T06:16:04;11.13;;;5.35;;
45198;SDS011;30941;46.422;18.772;2023-09-07T06:18:30;10.63;;;5.97;;
45198;SDS011;30941;46.422;18.772;2023-09-07T06:20:55;8.13;;;5.55;;
45198;SDS011;30941;46.422;18.772;2023-09-07T06:23:20;8.10;;;5.63;;
45198;SDS011;30941;46.422;18.772;2023-09-07T06:25:46;9.05;;;5.40;;
45198;SDS011;30941;46.422;18.772;2023-09-07T06:28:11;7.97;;;5.43;;
45198;SDS011;30941;46.422;18.772;2023-09-07T06:30:38;9.70;;;5.10;;
45198;SDS011;30941;46.422;18.772;2023-09-07T06:33:03;9.52;;;5.15;;
45198;SDS011;30941;46.422;18.772;2023-09-07T06:35:29;11.77;;;6.10;;
45198;SDS011;30941;46.422;18.772;2023-09-07T06:37:54;7.75;;;5.28;;
45198;SDS011;30941;46.422;18.772;2023-09-07T06:40:20;11.48;;;5.43;;
45198;SDS011;30941;46.422;18.772;2023-09-07T06:42:46;8.55;;;4.80;;
45198;SDS011;30941;46.422;18.772;2023-09-07T06:45:11;7.70;;;4.93;;
45198;SDS011;30941;46.422;18.772;2023-09-07T06:47:37;8.85;;;4.78;;
45198;SDS011;30941;46.422;18.772;2023-09-07T06:50:03;7.40;;;4.70;;
45198;SDS011;30941;46.422;18.772;2023-09-07T06:52:29;12.32;;;4.68;;
45198;SDS011;30941;46.422;18.772;2023-09-07T06:54:54;8.43;;;5.00;;
45198;SDS011;30941;46.422;18.772;2023-09-07T06:57:20;6.63;;;4.22;;
45198;SDS011;30941;46.422;18.772;2023-09-07T06:59:45;8.48;;;4.53;;
45198;SDS011;30941;46.422;18.772;2023-09-07T07:02:11;8.80;;;4.82;;
45198;SDS011;30941;46.422;18.772;2023-09-07T07:04:36;7.40;;;4.15;;
45198;SDS011;30941;46.422;18.772;2023-09-07T07:07:02;8.45;;;5.05;;
45198;SDS011;30941;46.422;18.772;2023-09-07T07:09:29;8.60;;;4.88;;
45198;SDS011;30941;46.422;18.772;2023-09-07T07:11:55;10.35;;;5.35;;
45198;SDS011;30941;46.422;18.772;2023-09-07T07:14:21;8.70;;;4.93;;
45198;SDS011;30941;46.422;18.772;2023-09-07T07:16:46;7.53;;;4.72;;
45198;SDS011;30941;46.422;18.772;2023-09-07T07:19:11;6.75;;;4.70;;
45198;SDS011;30941;46.422;18.772;2023-09-07T07:21:37;11.65;;;4.68;;
45198;SDS011;30941;46.422;18.772;2023-09-07T07:24:02;12.85;;;5.03;;
45198;SDS011;30941;46.422;18.772;2023-09-07T07:26:31;7.55;;;4.75;;
45198;SDS011;30941;46.422;18.772;2023-09-07T07:28:56;8.70;;;5.07;;
45198;SDS011;30941;46.422;18.772;2023-09-07T07:31:21;7.68;;;4.68;;
45198;SDS011;30941;46.422;18.772;2023-09-07T07:33:47;7.57;;;4.53;;
45198;SDS011;30941;46.422;18.772;2023-09-07T07:36:15;7.70;;;4.60;;
45198;SDS011;30941;46.422;18.772;2023-09-07T07:38:41;9.30;;;4.50;;
45198;SDS011;30941;46.422;18.772;2023-09-07T07:41:06;14.88;;;5.25;;
45198;SDS011;30941;46.422;18.772;2023-09-07T07:43:32;6.63;;;4.38;;
45198;SDS011;30941;46.422;18.772;2023-09-07T07:45:58;6.13;;;4.20;;
45198;SDS011;30941;46.422;18.772;2023-09-07T07:48:24;12.77;;;4.55;;
45198;SDS011;30941;46.422;18.772;2023-09-07T07:50:50;12.18;;;4.53;;
45198;SDS011;30941;46.422;18.772;2023-09-07T07:53:15;7.18;;;4.15;;
45198;SDS011;30941;46.422;18.772;2023-09-07T07:55:40;6.93;;;4.45;;
45198;SDS011;30941;46.422;18.772;2023-09-07T07:58:06;9.10;;;4.20;;
45198;SDS011;30941;46.422;18.772;2023-09-07T08:00:33;12.40;;;5.30;;
45198;SDS011;30941;46.422;18.772;2023-09-07T08:02:59;7.20;;;4.60;;
45198;SDS011;30941;46.422;18.772;2023-09-07T08:05:27;10.32;;;4.50;;
45198;SDS011;30941;46.422;18.772;2023-09-07T08:07:52;10.70;;;4.80;;
45198;SDS011;30941;46.422;18.772;2023-09-07T08:10:18;8.52;;;4.57;;
45198;SDS011;30941;46.422;18.772;2023-09-07T08:12:43;6.05;;;4.40;;
45198;SDS011;30941;46.422;18.772;2023-09-07T08:15:09;9.25;;;4.88;;
45198;SDS011;30941;46.422;18.772;2023-09-07T08:17:35;10.70;;;4.82;;
45198;SDS011;30941;46.422;18.772;2023-09-07T08:20:00;7.85;;;4.93;;
45198;SDS011;30941;46.422;18.772;2023-09-07T08:22:26;8.00;;;4.22;;
45198;SDS011;30941;46.422;18.772;2023-09-07T08:24:52;6.68;;;4.40;;
45198;SDS011;30941;46.422;18.772;2023-09-07T08:27:19;7.28;;;4.15;;
45198;SDS011;30941;46.422;18.772;2023-09-07T08:29:44;8.13;;;4.55;;
45198;SDS011;30941;46.422;18.772;2023-09-07T08:32:16;6.88;;;4.18;;
45198;SDS011;30941;46.422;18.772;2023-09-07T08:34:42;9.57;;;4.38;;
45198;SDS011;30941;46.422;18.772;2023-09-07T08:37:07;9.63;;;4.63;;
45198;SDS011;30941;46.422;18.772;2023-09-07T08:39:36;6.63;;;3.88;;
45198;SDS011;30941;46.422;18.772;2023-09-07T08:42:04;11.27;;;4.00;;
45198;SDS011;30941;46.422;18.772;2023-09-07T08:44:30;7.32;;;4.03;;
45198;SDS011;30941;46.422;18.772;2023-09-07T08:46:58;6.20;;;4.20;;
45198;SDS011;30941;46.422;18.772;2023-09-07T08:49:25;8.52;;;4.32;;
45198;SDS011;30941;46.422;18.772;2023-09-07T08:51:50;8.98;;;4.20;;
45198;SDS011;30941;46.422;18.772;2023-09-07T08:54:16;7.30;;;4.35;;
45198;SDS011;30941;46.422;18.772;2023-09-07T08:56:42;10.77;;;4.90;;
45198;SDS011;30941;46.422;18.772;2023-09-07T08:59:09;5.78;;;4.15;;
45198;SDS011;30941;46.422;18.772;2023-09-07T09:01:35;9.18;;;4.35;;
45198;SDS011;30941;46.422;18.772;2023-09-07T09:04:02;7.63;;;4.25;;
45198;SDS011;30941;46.422;18.772;2023-09-07T09:06:27;5.78;;;3.80;;
45198;SDS011;30941;46.422;18.772;2023-09-07T09:08:54;7.70;;;3.90;;
45198;SDS011;30941;46.422;18.772;2023-09-07T09:11:22;8.43;;;4.53;;
45198;SDS011;30941;46.422;18.772;2023-09-07T09:13:49;6.57;;;3.78;;
45198;SDS011;30941;46.422;18.772;2023-09-07T09:16:15;5.93;;;3.85;;
45198;SDS011;30941;46.422;18.772;2023-09-07T09:18:51;6.38;;;4.03;;
45198;SDS011;30941;46.422;18.772;2023-09-07T09:21:18;7.00;;;3.92;;
45198;SDS011;30941;46.422;18.772;2023-09-07T09:23:46;7.65;;;4.30;;
45198;SDS011;30941;46.422;18.772;2023-09-07T09:26:13;9.80;;;4.22;;
45198;SDS011;30941;46.422;18.772;2023-09-07T09:28:38;5.30;;;3.78;;
45198;SDS011;30941;46.422;18.772;2023-09-07T09:31:04;6.03;;;4.00;;
45198;SDS011;30941;46.422;18.772;2023-09-07T09:33:32;6.95;;;4.00;;
45198;SDS011;30941;46.422;18.772;2023-09-07T09:36:00;9.35;;;3.83;;
45198;SDS011;30941;46.422;18.772;2023-09-07T09:38:26;8.13;;;4.18;;
45198;SDS011;30941;46.422;18.772;2023-09-07T09:40:51;5.88;;;3.60;;
45198;SDS011;30941;46.422;18.772;2023-09-07T09:43:19;7.50;;;4.13;;
45198;SDS011;30941;46.422;18.772;2023-09-07T09:45:44;8.05;;;4.32;;
45198;SDS011;30941;46.422;18.772;2023-09-07T09:48:10;6.63;;;4.30;;
45198;SDS011;30941;46.422;18.772;2023-09-07T09:50:36;10.13;;;4.13;;
45198;SDS011;30941;46.422;18.772;2023-09-07T09:53:06;7.10;;;3.97;;
45198;SDS011;30941;46.422;18.772;2023-09-07T09:55:32;8.20;;;4.22;;
45198;SDS011;30941;46.422;18.772;2023-09-07T09:57:57;7.05;;;3.85;;
45198;SDS011;30941;46.422;18.772;2023-09-07T10:00:23;7.15;;;4.20;;
45198;SDS011;30941;46.422;18.772;2023-09-07T10:02:57;10.02;;;4.15;;
45198;SDS011;30941;46.422;18.772;2023-09-07T10:05:25;6.82;;;4.18;;
45198;SDS011;30941;46.422;18.772;2023-09-07T10:07:51;6.40;;;3.75;;
45198;SDS011;30941;46.422;18.772;2023-09-07T10:10:18;5.40;;;3.42;;
45198;SDS011;30941;46.422;18.772;2023-09-07T10:12:44;4.15;;;3.13;;
45198;SDS011;30941;46.422;18.772;2023-09-07T10:15:20;5.43;;;3.88;;
45198;SDS011;30941;46.422;18.772;2023-09-07T10:17:46;4.65;;;3.40;;
45198;SDS011;30941;46.422;18.772;2023-09-07T10:20:15;6.28;;;3.55;;
45198;SDS011;30941;46.422;18.772;2023-09-07T10:22:43;6.40;;;3.15;;
45198;SDS011;30941;46.422;18.772;2023-09-07T10:25:29;8.45;;;3.60;;
45198;SDS011;30941;46.422;18.772;2023-09-07T10:27:55;6.80;;;3.35;;
45198;SDS011;30941;46.422;18.772;2023-09-07T10:30:20;5.03;;;3.65;;
45198;SDS011;30941;46.422;18.772;2023-09-07T10:32:48;7.85;;;3.67;;
45198;SDS011;30941;46.422;18.772;2023-09-07T10:35:20;6.40;;;3.33;;
45198;SDS011;30941;46.422;18.772;2023-09-07T10:37:50;4.55;;;3.15;;
45198;SDS011;30941;46.422;18.772;2023-09-07T10:40:20;5.47;;;3.38;;
45198;SDS011;30941;46.422;18.772;2023-09-07T10:42:46;4.65;;;3.33;;
45198;SDS011;30941;46.422;18.772;2023-09-07T10:45:12;4.07;;;3.50;;
45198;SDS011;30941;46.422;18.772;2023-09-07T10:47:44;6.40;;;3.63;;
45198;SDS011;30941;46.422;18.772;2023-09-07T10:50:11;8.20;;;3.67;;
45198;SDS011;30941;46.422;18.772;2023-09-07T10:52:38;5.60;;;3.05;;
45198;SDS011;30941;46.422;18.772;2023-09-07T10:55:04;4.50;;;3.65;;
45198;SDS011;30941;46.422;18.772;2023-09-07T10:57:30;6.22;;;3.47;;
45198;SDS011;30941;46.422;18.772;2023-09-07T10:59:56;4.72;;;3.58;;
45198;SDS011;30941;46.422;18.772;2023-09-07T11:02:21;5.47;;;3.35;;
45198;SDS011;30941;46.422;18.772;2023-09-07T11:04:47;5.45;;;3.50;;
45198;SDS011;30941;46.422;18.772;2023-09-07T11:07:12;7.20;;;3.53;;
45198;SDS011;30941;46.422;18.772;2023-09-07T11:09:41;4.70;;;3.28;;
45198;SDS011;30941;46.422;18.772;2023-09-07T11:12:07;5.93;;;3.85;;
45198;SDS011;30941;46.422;18.772;2023-09-07T11:14:33;4.40;;;3.80;;
45198;SDS011;30941;46.422;18.772;2023-09-07T11:16:58;5.70;;;3.20;;
45198;SDS011;30941;46.422;18.772;2023-09-07T11:19:26;8.70;;;3.63;;
45198;SDS011;30941;46.422;18.772;2023-09-07T11:21:53;9.30;;;3.80;;
45198;SDS011;30941;46.422;18.772;2023-09-07T11:24:19;4.82;;;3.00;;
45198;SDS011;30941;46.422;18.772;2023-09-07T11:26:45;6.78;;;3.28;;
45198;SDS011;30941;46.422;18.772;2023-09-07T11:29:15;3.63;;;2.83;;
45198;SDS011;30941;46.422;18.772;2023-09-07T11:31:41;6.63;;;3.65;;
45198;SDS011;30941;46.422;18.772;2023-09-07T11:34:10;6.97;;;3.25;;
45198;SDS011;30941;46.422;18.772;2023-09-07T11:36:36;8.80;;;3.33;;
45198;SDS011;30941;46.422;18.772;2023-09-07T11:39:01;4.57;;;3.10;;
45198;SDS011;30941;46.422;18.772;2023-09-07T11:41:35;5.40;;;3.17;;
45198;SDS011;30941;46.422;18.772;2023-09-07T11:44:01;6.15;;;3.70;;
45198;SDS011;30941;46.422;18.772;2023-09-07T11:46:26;3.75;;;3.35;;
45198;SDS011;30941;46.422;18.772;2023-09-07T11:48:51;5.50;;;3.03;;
45198;SDS011;30941;46.422;18.772;2023-09-07T11:51:17;4.70;;;3.10;;
45198;SDS011;30941;46.422;18.772;2023-09-07T11:53:42;4.43;;;3.13;;
45198;SDS011;30941;46.422;18.772;2023-09-07T11:56:07;8.32;;;3.10;;
45198;SDS011;30941;46.422;18.772;2023-09-07T11:58:33;4.53;;;3.58;;
45198;SDS011;30941;46.422;18.772;2023-09-07T12:00:58;5.55;;;3.15;;
45198;SDS011;30941;46.422;18.772;2023-09-07T12:03:24;5.47;;;3.17;;
45198;SDS011;30941;46.422;18.772;2023-09-07T12:05:49;5.03;;;3.35;;
45198;SDS011;30941;46.422;18.772;2023-09-07T12:08:14;4.57;;;3.13;;
45198;SDS011;30941;46.422;18.772;2023-09-07T12:10:40;3.65;;;3.28;;
45198;SDS011;30941;46.422;18.772;2023-09-07T12:13:05;8.85;;;3.40;;
45198;SDS011;30941;46.422;18.772;2023-09-07T12:15:30;4.15;;;2.90;;
45198;SDS011;30941;46.422;18.772;2023-09-07T12:17:56;3.90;;;3.30;;
45198;SDS011;30941;46.422;18.772;2023-09-07T12:20:22;5.10;;;3.28;;
45198;SDS011;30941;46.422;18.772;2023-09-07T12:22:47;7.57;;;3.65;;
45198;SDS011;30941;46.422;18.772;2023-09-07T12:25:14;8.15;;;3.50;;
45198;SDS011;30941;46.422;18.772;2023-09-07T12:27:40;8.25;;;3.50;;
45198;SDS011;30941;46.422;18.772;2023-09-07T12:30:07;3.85;;;3.28;;
45198;SDS011;30941;46.422;18.772;2023-09-07T12:32:37;6.25;;;3.00;;
45198;SDS011;30941;46.422;18.772;2023-09-07T12:35:03;6.28;;;3.42;;
45198;SDS011;30941;46.422;18.772;2023-09-07T12:37:32;4.70;;;3.17;;
45198;SDS011;30941;46.422;18.772;2023-09-07T12:39:58;4.78;;;3.13;;
45198;SDS011;30941;46.422;18.772;2023-09-07T12:42:23;6.10;;;3.25;;
45198;SDS011;30941;46.422;18.772;2023-09-07T12:44:49;8.38;;;3.65;;
45198;SDS011;30941;46.422;18.772;2023-09-07T12:47:14;6.30;;;3.67;;
45198;SDS011;30941;46.422;18.772;2023-09-07T12:49:40;6.00;;;3.30;;
45198;SDS011;30941;46.422;18.772;2023-09-07T12:52:06;4.60;;;3.25;;
45198;SDS011;30941;46.422;18.772;2023-09-07T12:54:36;5.95;;;3.72;;
45198;SDS011;30941;46.422;18.772;2023-09-07T12:57:02;4.80;;;3.08;;
45198;SDS011;30941;46.422;18.772;2023-09-07T12:59:29;6.05;;;3.78;;
45198;SDS011;30941;46.422;18.772;2023-09-07T13:01:54;5.95;;;3.40;;
45198;SDS011;30941;46.422;18.772;2023-09-07T13:04:23;5.53;;;3.15;;
45198;SDS011;30941;46.422;18.772;2023-09-07T13:06:48;4.38;;;3.20;;
45198;SDS011;30941;46.422;18.772;2023-09-07T13:09:13;7.45;;;3.40;;
45198;SDS011;30941;46.422;18.772;2023-09-07T13:11:39;4.68;;;3.42;;
45198;SDS011;30941;46.422;18.772;2023-09-07T13:14:04;5.57;;;3.20;;
45198;SDS011;30941;46.422;18.772;2023-09-07T13:16:30;5.68;;;3.45;;
45198;SDS011;30941;46.422;18.772;2023-09-07T13:18:57;5.72;;;3.10;;
45198;SDS011;30941;46.422;18.772;2023-09-07T13:21:23;4.97;;;3.25;;
45198;SDS011;30941;46.422;18.772;2023-09-07T13:23:49;4.80;;;3.40;;
45198;SDS011;30941;46.422;18.772;2023-09-07T13:26:14;4.95;;;3.85;;
45198;SDS011;30941;46.422;18.772;2023-09-07T13:28:40;10.27;;;3.83;;
45198;SDS011;30941;46.422;18.772;2023-09-07T13:31:05;4.88;;;3.80;;
45198;SDS011;30941;46.422;18.772;2023-09-07T13:33:31;5.05;;;3.03;;
45198;SDS011;30941;46.422;18.772;2023-09-07T13:35:56;4.90;;;3.17;;
45198;SDS011;30941;46.422;18.772;2023-09-07T13:38:22;5.05;;;3.40;;
45198;SDS011;30941;46.422;18.772;2023-09-07T13:40:47;4.65;;;3.25;;
45198;SDS011;30941;46.422;18.772;2023-09-07T13:43:12;4.53;;;3.60;;
45198;SDS011;30941;46.422;18.772;2023-09-07T13:45:38;6.68;;;3.60;;
45198;SDS011;30941;46.422;18.772;2023-09-07T13:48:03;4.60;;;3.55;;
45198;SDS011;30941;46.422;18.772;2023-09-07T13:50:29;5.82;;;3.45;;
45198;SDS011;30941;46.422;18.772;2023-09-07T13:52:55;4.50;;;3.50;;
45198;SDS011;30941;46.422;18.772;2023-09-07T13:55:21;7.65;;;3.42;;
45198;SDS011;30941;46.422;18.772;2023-09-07T13:57:47;4.80;;;3.58;;
45198;SDS011;30941;46.422;18.772;2023-09-07T14:00:12;6.25;;;3.35;;
45198;SDS011;30941;46.422;18.772;2023-09-07T14:02:38;6.97;;;3.72;;
45198;SDS011;30941;46.422;18.772;2023-09-07T14:05:03;6.85;;;3.17;;
45198;SDS011;30941;46.422;18.772;2023-09-07T14:07:30;5.03;;;3.35;;
45198;SDS011;30941;46.422;18.772;2023-09-07T14:09:55;9.75;;;3.63;;
45198;SDS011;30941;46.422;18.772;2023-09-07T14:12:21;8.82;;;3.42;;
45198;SDS011;30941;46.422;18.772;2023-09-07T14:14:47;6.05;;;3.53;;
45198;SDS011;30941;46.422;18.772;2023-09-07T14:17:13;4.65;;;3.30;;
45198;SDS011;30941;46.422;18.772;2023-09-07T14:19:38;7.65;;;3.70;;
45198;SDS011;30941;46.422;18.772;2023-09-07T14:22:03;6.68;;;3.70;;
45198;SDS011;30941;46.422;18.772;2023-09-07T14:24:29;7.32;;;3.70;;
45198;SDS011;30941;46.422;18.772;2023-09-07T14:26:54;6.70;;;3.78;;